sensor_id;sensor_type;location;lat;lon;timestamp;P1;durP1;ratioP1;P2;durP2;ratioP2
45318;SDS011;31057;48.498;32.260;2022-09-09T00:04:27;17.58;;;12.30;;
45318;SDS011;31057;48.498;32.260;2022-09-09T00:10:44;13.85;;;11.20;;
45318;SDS011;31057;48.498;32.260;2022-09-09T00:13:54;14.52;;;11.40;;
45318;SDS011;31057;48.498;32.260;2022-09-09T00:17:06;13.52;;;10.40;;
45318;SDS011;31057;48.498;32.260;2022-09-09T00:23:35;17.45;;;12.80;;
45318;SDS011;31057;48.498;32.260;2022-09-09T00:26:42;20.52;;;13.27;;
45318;SDS011;31057;48.498;32.260;2022-09-09T00:33:01;21.33;;;17.08;;
45318;SDS011;31057;48.498;32.260;2022-09-09T00:36:17;19.20;;;14.32;;
45318;SDS011;31057;48.498;32.260;2022-09-09T00:39:42;23.92;;;16.67;;
45318;SDS011;31057;48.498;32.260;2022-09-09T00:42:50;18.45;;;14.38;;
45318;SDS011;31057;48.498;32.260;2022-09-09T00:46:15;19.70;;;15.30;;
45318;SDS011;31057;48.498;32.260;2022-09-09T00:52:47;17.73;;;13.80;;
45318;SDS011;31057;48.498;32.260;2022-09-09T01:02:36;18.80;;;14.40;;
45318;SDS011;31057;48.498;32.260;2022-09-09T01:12:24;14.63;;;12.77;;
45318;SDS011;31057;48.498;32.260;2022-09-09T01:15:31;16.38;;;12.95;;
45318;SDS011;31057;48.498;32.260;2022-09-09T01:18:37;17.45;;;13.05;;
45318;SDS011;31057;48.498;32.260;2022-09-09T01:21:54;17.48;;;13.93;;
45318;SDS011;31057;48.498;32.260;2022-09-09T01:28:29;17.98;;;14.20;;
45318;SDS011;31057;48.498;32.260;2022-09-09T01:31:42;15.20;;;12.32;;
45318;SDS011;31057;48.498;32.260;2022-09-09T01:34:53;18.77;;;13.82;;
45318;SDS011;31057;48.498;32.260;2022-09-09T01:37:55;16.75;;;13.68;;
45318;SDS011;31057;48.498;32.260;2022-09-09T01:40:57;17.13;;;13.73;;
45318;SDS011;31057;48.498;32.260;2022-09-09T01:43:59;17.17;;;13.50;;
45318;SDS011;31057;48.498;32.260;2022-09-09T01:47:02;15.45;;;13.07;;
45318;SDS011;31057;48.498;32.260;2022-09-09T01:50:04;18.50;;;13.48;;
45318;SDS011;31057;48.498;32.260;2022-09-09T01:53:09;13.73;;;12.30;;
45318;SDS011;31057;48.498;32.260;2022-09-09T02:09:29;16.88;;;14.55;;
45318;SDS011;31057;48.498;32.260;2022-09-09T02:12:31;22.02;;;13.18;;
45318;SDS011;31057;48.498;32.260;2022-09-09T02:18:51;13.95;;;12.50;;
45318;SDS011;31057;48.498;32.260;2022-09-09T02:22:02;17.30;;;12.40;;
45318;SDS011;31057;48.498;32.260;2022-09-09T02:25:05;16.45;;;12.43;;
45318;SDS011;31057;48.498;32.260;2022-09-09T02:28:10;15.48;;;11.88;;
45318;SDS011;31057;48.498;32.260;2022-09-09T02:31:14;13.35;;;11.65;;
45318;SDS011;31057;48.498;32.260;2022-09-09T02:34:20;14.07;;;12.63;;
45318;SDS011;31057;48.498;32.260;2022-09-09T02:37:26;16.17;;;12.40;;
45318;SDS011;31057;48.498;32.260;2022-09-09T02:40:32;14.82;;;11.15;;
45318;SDS011;31057;48.498;32.260;2022-09-09T02:43:35;12.98;;;11.52;;
45318;SDS011;31057;48.498;32.260;2022-09-09T02:56:21;13.23;;;11.40;;
45318;SDS011;31057;48.498;32.260;2022-09-09T02:59:28;16.33;;;11.82;;
45318;SDS011;31057;48.498;32.260;2022-09-09T03:02:31;14.50;;;11.80;;
45318;SDS011;31057;48.498;32.260;2022-09-09T03:05:33;15.95;;;11.02;;
45318;SDS011;31057;48.498;32.260;2022-09-09T03:08:35;16.75;;;10.82;;
45318;SDS011;31057;48.498;32.260;2022-09-09T03:11:38;13.48;;;11.07;;
45318;SDS011;31057;48.498;32.260;2022-09-09T03:14:40;16.15;;;10.77;;
45318;SDS011;31057;48.498;32.260;2022-09-09T03:17:42;14.05;;;10.70;;
45318;SDS011;31057;48.498;32.260;2022-09-09T03:20:45;15.98;;;11.57;;
45318;SDS011;31057;48.498;32.260;2022-09-09T03:23:49;16.70;;;10.95;;
45318;SDS011;31057;48.498;32.260;2022-09-09T03:26:51;17.75;;;11.07;;
45318;SDS011;31057;48.498;32.260;2022-09-09T03:29:53;15.70;;;10.32;;
45318;SDS011;31057;48.498;32.260;2022-09-09T03:32:55;13.70;;;11.63;;
45318;SDS011;31057;48.498;32.260;2022-09-09T03:35:57;16.55;;;13.98;;
45318;SDS011;31057;48.498;32.260;2022-09-09T03:38:59;16.75;;;14.60;;
45318;SDS011;31057;48.498;32.260;2022-09-09T03:42:04;13.05;;;10.85;;
45318;SDS011;31057;48.498;32.260;2022-09-09T03:45:08;25.88;;;17.48;;
45318;SDS011;31057;48.498;32.260;2022-09-09T03:48:11;16.40;;;14.18;;
45318;SDS011;31057;48.498;32.260;2022-09-09T03:51:13;18.20;;;13.40;;
45318;SDS011;31057;48.498;32.260;2022-09-09T03:57:19;18.30;;;14.80;;
45318;SDS011;31057;48.498;32.260;2022-09-09T04:00:21;18.98;;;13.82;;
45318;SDS011;31057;48.498;32.260;2022-09-09T04:03:23;15.15;;;12.35;;
45318;SDS011;31057;48.498;32.260;2022-09-09T04:06:28;18.85;;;12.68;;
45318;SDS011;31057;48.498;32.260;2022-09-09T04:09:31;17.47;;;12.70;;
45318;SDS011;31057;48.498;32.260;2022-09-09T04:12:33;17.17;;;12.32;;
45318;SDS011;31057;48.498;32.260;2022-09-09T04:15:35;14.32;;;10.95;;
45318;SDS011;31057;48.498;32.260;2022-09-09T04:18:37;17.73;;;11.82;;
45318;SDS011;31057;48.498;32.260;2022-09-09T04:21:40;16.30;;;11.40;;
45318;SDS011;31057;48.498;32.260;2022-09-09T04:24:42;17.38;;;12.30;;
45318;SDS011;31057;48.498;32.260;2022-09-09T04:27:53;18.63;;;11.27;;
45318;SDS011;31057;48.498;32.260;2022-09-09T04:31:05;18.92;;;11.27;;
45318;SDS011;31057;48.498;32.260;2022-09-09T04:34:09;15.38;;;11.25;;
45318;SDS011;31057;48.498;32.260;2022-09-09T04:37:11;14.55;;;12.27;;
45318;SDS011;31057;48.498;32.260;2022-09-09T04:40:13;14.57;;;10.68;;
45318;SDS011;31057;48.498;32.260;2022-09-09T04:43:15;20.52;;;10.70;;
45318;SDS011;31057;48.498;32.260;2022-09-09T04:46:17;17.67;;;11.68;;
45318;SDS011;31057;48.498;32.260;2022-09-09T04:49:19;13.68;;;10.13;;
45318;SDS011;31057;48.498;32.260;2022-09-09T04:52:21;14.77;;;11.43;;
45318;SDS011;31057;48.498;32.260;2022-09-09T04:55:22;13.30;;;10.43;;
45318;SDS011;31057;48.498;32.260;2022-09-09T04:58:24;17.73;;;10.45;;
45318;SDS011;31057;48.498;32.260;2022-09-09T05:01:27;13.65;;;9.80;;
45318;SDS011;31057;48.498;32.260;2022-09-09T05:04:29;12.55;;;10.85;;
45318;SDS011;31057;48.498;32.260;2022-09-09T05:07:31;12.43;;;10.65;;
45318;SDS011;31057;48.498;32.260;2022-09-09T05:10:33;11.80;;;10.20;;
45318;SDS011;31057;48.498;32.260;2022-09-09T05:13:37;16.83;;;10.85;;
45318;SDS011;31057;48.498;32.260;2022-09-09T05:16:41;17.85;;;11.68;;
45318;SDS011;31057;48.498;32.260;2022-09-09T05:19:45;21.67;;;12.13;;
45318;SDS011;31057;48.498;32.260;2022-09-09T05:22:47;20.13;;;11.43;;
45318;SDS011;31057;48.498;32.260;2022-09-09T05:25:54;15.23;;;10.95;;
45318;SDS011;31057;48.498;32.260;2022-09-09T05:28:59;13.25;;;9.68;;
45318;SDS011;31057;48.498;32.260;2022-09-09T05:32:02;12.63;;;9.57;;
45318;SDS011;31057;48.498;32.260;2022-09-09T05:35:05;16.13;;;10.10;;
45318;SDS011;31057;48.498;32.260;2022-09-09T05:38:07;14.30;;;10.38;;
45318;SDS011;31057;48.498;32.260;2022-09-09T05:41:09;10.80;;;9.00;;
45318;SDS011;31057;48.498;32.260;2022-09-09T05:44:12;14.05;;;10.05;;
45318;SDS011;31057;48.498;32.260;2022-09-09T05:47:14;13.45;;;9.25;;
45318;SDS011;31057;48.498;32.260;2022-09-09T05:50:16;13.57;;;9.57;;
45318;SDS011;31057;48.498;32.260;2022-09-09T05:53:18;13.15;;;10.15;;
45318;SDS011;31057;48.498;32.260;2022-09-09T05:56:23;11.82;;;8.32;;
45318;SDS011;31057;48.498;32.260;2022-09-09T05:59:27;11.40;;;8.55;;
45318;SDS011;31057;48.498;32.260;2022-09-09T06:02:29;12.50;;;9.23;;
45318;SDS011;31057;48.498;32.260;2022-09-09T06:05:31;11.68;;;9.27;;
45318;SDS011;31057;48.498;32.260;2022-09-09T06:08:34;14.60;;;9.63;;
45318;SDS011;31057;48.498;32.260;2022-09-09T06:11:41;12.55;;;9.55;;
45318;SDS011;31057;48.498;32.260;2022-09-09T06:14:43;18.67;;;9.20;;
45318;SDS011;31057;48.498;32.260;2022-09-09T06:17:46;9.48;;;7.82;;
45318;SDS011;31057;48.498;32.260;2022-09-09T06:20:58;13.27;;;8.65;;
45318;SDS011;31057;48.498;32.260;2022-09-09T06:24:02;17.60;;;8.35;;
45318;SDS011;31057;48.498;32.260;2022-09-09T06:27:05;9.38;;;7.78;;
45318;SDS011;31057;48.498;32.260;2022-09-09T06:30:07;9.02;;;7.13;;
45318;SDS011;31057;48.498;32.260;2022-09-09T06:33:10;10.75;;;8.15;;
45318;SDS011;31057;48.498;32.260;2022-09-09T06:36:13;9.73;;;8.05;;
45318;SDS011;31057;48.498;32.260;2022-09-09T06:39:17;11.20;;;7.15;;
45318;SDS011;31057;48.498;32.260;2022-09-09T06:42:19;10.95;;;7.93;;
45318;SDS011;31057;48.498;32.260;2022-09-09T06:45:21;13.52;;;7.80;;
45318;SDS011;31057;48.498;32.260;2022-09-09T06:48:23;11.35;;;7.35;;
45318;SDS011;31057;48.498;32.260;2022-09-09T06:51:33;16.85;;;8.05;;
45318;SDS011;31057;48.498;32.260;2022-09-09T06:54:36;10.48;;;7.80;;
45318;SDS011;31057;48.498;32.260;2022-09-09T06:57:38;19.75;;;9.52;;
45318;SDS011;31057;48.498;32.260;2022-09-09T07:00:40;12.75;;;7.38;;
45318;SDS011;31057;48.498;32.260;2022-09-09T07:03:45;9.50;;;7.18;;
45318;SDS011;31057;48.498;32.260;2022-09-09T07:06:49;14.00;;;7.70;;
45318;SDS011;31057;48.498;32.260;2022-09-09T07:09:53;11.25;;;7.10;;
45318;SDS011;31057;48.498;32.260;2022-09-09T07:12:55;11.38;;;8.55;;
45318;SDS011;31057;48.498;32.260;2022-09-09T07:16:07;13.55;;;6.97;;
45318;SDS011;31057;48.498;32.260;2022-09-09T07:19:11;14.70;;;7.82;;
45318;SDS011;31057;48.498;32.260;2022-09-09T07:25:16;10.65;;;6.93;;
45318;SDS011;31057;48.498;32.260;2022-09-09T07:28:19;9.63;;;6.65;;
45318;SDS011;31057;48.498;32.260;2022-09-09T07:31:23;13.18;;;6.80;;
45318;SDS011;31057;48.498;32.260;2022-09-09T07:34:27;12.57;;;7.25;;
45318;SDS011;31057;48.498;32.260;2022-09-09T07:37:29;11.02;;;6.05;;
45318;SDS011;31057;48.498;32.260;2022-09-09T07:40:31;9.80;;;6.40;;
45318;SDS011;31057;48.498;32.260;2022-09-09T07:43:33;7.63;;;5.65;;
45318;SDS011;31057;48.498;32.260;2022-09-09T07:46:35;7.65;;;6.13;;
45318;SDS011;31057;48.498;32.260;2022-09-09T07:49:38;10.38;;;5.82;;
45318;SDS011;31057;48.498;32.260;2022-09-09T07:52:40;10.77;;;6.03;;
45318;SDS011;31057;48.498;32.260;2022-09-09T07:55:42;11.40;;;6.10;;
45318;SDS011;31057;48.498;32.260;2022-09-09T07:58:45;8.00;;;5.88;;
45318;SDS011;31057;48.498;32.260;2022-09-09T08:01:48;13.48;;;7.07;;
45318;SDS011;31057;48.498;32.260;2022-09-09T08:04:56;14.35;;;7.97;;
45318;SDS011;31057;48.498;32.260;2022-09-09T08:07:59;12.48;;;6.85;;
45318;SDS011;31057;48.498;32.260;2022-09-09T08:11:22;11.57;;;7.20;;
45318;SDS011;31057;48.498;32.260;2022-09-09T08:14:28;12.07;;;6.53;;
45318;SDS011;31057;48.498;32.260;2022-09-09T08:17:30;14.65;;;6.45;;
45318;SDS011;31057;48.498;32.260;2022-09-09T08:20:32;11.43;;;6.05;;
45318;SDS011;31057;48.498;32.260;2022-09-09T08:23:36;9.82;;;6.20;;
45318;SDS011;31057;48.498;32.260;2022-09-09T08:26:40;13.70;;;6.07;;
45318;SDS011;31057;48.498;32.260;2022-09-09T08:29:43;12.50;;;6.47;;
45318;SDS011;31057;48.498;32.260;2022-09-09T08:32:45;8.95;;;6.10;;
45318;SDS011;31057;48.498;32.260;2022-09-09T08:35:52;9.20;;;6.00;;
45318;SDS011;31057;48.498;32.260;2022-09-09T08:38:55;12.10;;;6.10;;
45318;SDS011;31057;48.498;32.260;2022-09-09T08:51:40;8.48;;;6.18;;
45318;SDS011;31057;48.498;32.260;2022-09-09T08:57:53;10.02;;;6.22;;
45318;SDS011;31057;48.498;32.260;2022-09-09T09:11:26;9.85;;;6.47;;
45318;SDS011;31057;48.498;32.260;2022-09-09T09:14:29;8.57;;;6.55;;
45318;SDS011;31057;48.498;32.260;2022-09-09T09:17:35;12.18;;;6.38;;
45318;SDS011;31057;48.498;32.260;2022-09-09T09:24:01;6.97;;;5.72;;
45318;SDS011;31057;48.498;32.260;2022-09-09T09:30:42;12.70;;;7.65;;
45318;SDS011;31057;48.498;32.260;2022-09-09T09:33:53;16.63;;;6.53;;
45318;SDS011;31057;48.498;32.260;2022-09-09T09:36:56;11.60;;;6.35;;
45318;SDS011;31057;48.498;32.260;2022-09-09T09:40:16;8.52;;;5.32;;
45318;SDS011;31057;48.498;32.260;2022-09-09T09:43:20;10.77;;;5.55;;
45318;SDS011;31057;48.498;32.260;2022-09-09T09:46:28;7.60;;;5.90;;
45318;SDS011;31057;48.498;32.260;2022-09-09T09:49:39;10.82;;;5.95;;
45318;SDS011;31057;48.498;32.260;2022-09-09T09:52:57;9.82;;;6.45;;
45318;SDS011;31057;48.498;32.260;2022-09-09T09:56:05;11.07;;;6.82;;
45318;SDS011;31057;48.498;32.260;2022-09-09T09:59:33;9.32;;;6.35;;
45318;SDS011;31057;48.498;32.260;2022-09-09T10:02:41;15.25;;;8.23;;
45318;SDS011;31057;48.498;32.260;2022-09-09T10:05:45;9.73;;;6.80;;
45318;SDS011;31057;48.498;32.260;2022-09-09T10:08:48;9.45;;;5.40;;
45318;SDS011;31057;48.498;32.260;2022-09-09T10:22:23;8.43;;;6.07;;
45318;SDS011;31057;48.498;32.260;2022-09-09T10:35:45;14.23;;;7.63;;
45318;SDS011;31057;48.498;32.260;2022-09-09T10:39:05;11.57;;;6.47;;
45318;SDS011;31057;48.498;32.260;2022-09-09T10:42:18;16.92;;;7.75;;
45318;SDS011;31057;48.498;32.260;2022-09-09T10:55:38;11.18;;;8.60;;
45318;SDS011;31057;48.498;32.260;2022-09-09T10:58:49;12.35;;;8.35;;
45318;SDS011;31057;48.498;32.260;2022-09-09T11:02:15;11.15;;;7.90;;
45318;SDS011;31057;48.498;32.260;2022-09-09T11:05:32;14.50;;;7.82;;
45318;SDS011;31057;48.498;32.260;2022-09-09T11:08:38;9.20;;;7.78;;
45318;SDS011;31057;48.498;32.260;2022-09-09T11:11:43;9.93;;;7.50;;
45318;SDS011;31057;48.498;32.260;2022-09-09T11:14:54;10.82;;;6.13;;
45318;SDS011;31057;48.498;32.260;2022-09-09T11:18:03;12.73;;;6.70;;
45318;SDS011;31057;48.498;32.260;2022-09-09T11:21:12;10.25;;;6.60;;
45318;SDS011;31057;48.498;32.260;2022-09-09T11:27:46;13.00;;;6.97;;
45318;SDS011;31057;48.498;32.260;2022-09-09T11:38:19;11.68;;;7.95;;
45318;SDS011;31057;48.498;32.260;2022-09-09T11:41:46;15.40;;;10.25;;
45318;SDS011;31057;48.498;32.260;2022-09-09T11:44:48;13.13;;;7.50;;
45318;SDS011;31057;48.498;32.260;2022-09-09T11:47:54;12.52;;;7.68;;
45318;SDS011;31057;48.498;32.260;2022-09-09T11:54:33;11.80;;;7.10;;
45318;SDS011;31057;48.498;32.260;2022-09-09T11:57:45;15.38;;;7.45;;
45318;SDS011;31057;48.498;32.260;2022-09-09T12:00:49;9.90;;;7.00;;
45318;SDS011;31057;48.498;32.260;2022-09-09T12:03:52;12.50;;;7.07;;
45318;SDS011;31057;48.498;32.260;2022-09-09T12:13:36;14.20;;;6.72;;
45318;SDS011;31057;48.498;32.260;2022-09-09T12:16:38;16.33;;;6.70;;
45318;SDS011;31057;48.498;32.260;2022-09-09T12:19:41;13.05;;;6.90;;
45318;SDS011;31057;48.498;32.260;2022-09-09T12:23:02;12.00;;;6.75;;
45318;SDS011;31057;48.498;32.260;2022-09-09T12:26:22;14.30;;;8.85;;
45318;SDS011;31057;48.498;32.260;2022-09-09T12:32:58;15.85;;;8.35;;
45318;SDS011;31057;48.498;32.260;2022-09-09T12:36:27;12.20;;;6.53;;
45318;SDS011;31057;48.498;32.260;2022-09-09T12:39:42;10.52;;;6.25;;
45318;SDS011;31057;48.498;32.260;2022-09-09T12:42:48;15.25;;;7.75;;
45318;SDS011;31057;48.498;32.260;2022-09-09T12:45:52;12.18;;;8.13;;
45318;SDS011;31057;48.498;32.260;2022-09-09T12:48:59;11.38;;;6.60;;
45318;SDS011;31057;48.498;32.260;2022-09-09T12:52:01;8.50;;;6.25;;
45318;SDS011;31057;48.498;32.260;2022-09-09T12:55:06;10.88;;;6.47;;
45318;SDS011;31057;48.498;32.260;2022-09-09T12:58:11;11.25;;;6.40;;
45318;SDS011;31057;48.498;32.260;2022-09-09T13:01:22;10.32;;;6.45;;
45318;SDS011;31057;48.498;32.260;2022-09-09T13:04:29;8.90;;;5.35;;
45318;SDS011;31057;48.498;32.260;2022-09-09T13:07:31;8.77;;;6.38;;
45318;SDS011;31057;48.498;32.260;2022-09-09T13:10:55;9.68;;;6.00;;
45318;SDS011;31057;48.498;32.260;2022-09-09T13:14:03;8.82;;;6.80;;
45318;SDS011;31057;48.498;32.260;2022-09-09T13:17:06;11.45;;;7.00;;
45318;SDS011;31057;48.498;32.260;2022-09-09T13:20:18;10.48;;;6.13;;
45318;SDS011;31057;48.498;32.260;2022-09-09T13:26:25;10.07;;;6.35;;
45318;SDS011;31057;48.498;32.260;2022-09-09T13:29:28;14.43;;;7.25;;
45318;SDS011;31057;48.498;32.260;2022-09-09T13:32:31;13.77;;;7.10;;
45318;SDS011;31057;48.498;32.260;2022-09-09T13:35:33;11.18;;;6.43;;
45318;SDS011;31057;48.498;32.260;2022-09-09T13:38:37;17.03;;;7.60;;
45318;SDS011;31057;48.498;32.260;2022-09-09T13:41:53;12.55;;;6.95;;
45318;SDS011;31057;48.498;32.260;2022-09-09T13:44:56;12.82;;;8.07;;
45318;SDS011;31057;48.498;32.260;2022-09-09T13:47:59;11.23;;;8.27;;
45318;SDS011;31057;48.498;32.260;2022-09-09T13:54:50;8.55;;;6.60;;
45318;SDS011;31057;48.498;32.260;2022-09-09T13:57:57;15.57;;;8.35;;
45318;SDS011;31057;48.498;32.260;2022-09-09T14:01:02;15.85;;;9.88;;
45318;SDS011;31057;48.498;32.260;2022-09-09T14:04:04;10.63;;;7.03;;
45318;SDS011;31057;48.498;32.260;2022-09-09T14:07:13;13.10;;;7.40;;
45318;SDS011;31057;48.498;32.260;2022-09-09T14:10:16;9.73;;;7.32;;
45318;SDS011;31057;48.498;32.260;2022-09-09T14:13:18;9.93;;;7.53;;
45318;SDS011;31057;48.498;32.260;2022-09-09T14:16:22;15.07;;;8.23;;
45318;SDS011;31057;48.498;32.260;2022-09-09T14:19:24;12.80;;;6.90;;
45318;SDS011;31057;48.498;32.260;2022-09-09T14:22:26;13.45;;;7.65;;
45318;SDS011;31057;48.498;32.260;2022-09-09T14:25:29;17.15;;;10.35;;
45318;SDS011;31057;48.498;32.260;2022-09-09T14:28:32;10.32;;;7.25;;
45318;SDS011;31057;48.498;32.260;2022-09-09T14:31:54;10.90;;;7.15;;
45318;SDS011;31057;48.498;32.260;2022-09-09T14:34:56;10.57;;;7.15;;
45318;SDS011;31057;48.498;32.260;2022-09-09T14:37:58;15.25;;;7.70;;
45318;SDS011;31057;48.498;32.260;2022-09-09T14:41:02;9.27;;;6.25;;
45318;SDS011;31057;48.498;32.260;2022-09-09T14:44:04;7.22;;;5.97;;
45318;SDS011;31057;48.498;32.260;2022-09-09T14:47:06;8.43;;;6.32;;
45318;SDS011;31057;48.498;32.260;2022-09-09T14:50:10;9.48;;;6.55;;
45318;SDS011;31057;48.498;32.260;2022-09-09T14:53:13;8.50;;;6.55;;
45318;SDS011;31057;48.498;32.260;2022-09-09T14:56:18;9.35;;;6.80;;
45318;SDS011;31057;48.498;32.260;2022-09-09T14:59:23;9.48;;;7.03;;
45318;SDS011;31057;48.498;32.260;2022-09-09T15:02:25;11.75;;;6.72;;
45318;SDS011;31057;48.498;32.260;2022-09-09T15:05:27;9.13;;;6.95;;
45318;SDS011;31057;48.498;32.260;2022-09-09T15:08:29;9.45;;;8.13;;
45318;SDS011;31057;48.498;32.260;2022-09-09T15:11:33;12.23;;;6.72;;
45318;SDS011;31057;48.498;32.260;2022-09-09T15:14:40;11.05;;;7.57;;
45318;SDS011;31057;48.498;32.260;2022-09-09T15:17:42;9.48;;;6.00;;
45318;SDS011;31057;48.498;32.260;2022-09-09T15:20:47;8.73;;;6.03;;
45318;SDS011;31057;48.498;32.260;2022-09-09T15:23:49;9.80;;;6.65;;
45318;SDS011;31057;48.498;32.260;2022-09-09T15:26:51;10.70;;;6.75;;
45318;SDS011;31057;48.498;32.260;2022-09-09T15:29:53;12.65;;;6.82;;
45318;SDS011;31057;48.498;32.260;2022-09-09T15:32:55;17.13;;;6.30;;
45318;SDS011;31057;48.498;32.260;2022-09-09T15:35:57;9.52;;;6.47;;
45318;SDS011;31057;48.498;32.260;2022-09-09T15:38:59;15.30;;;8.88;;
45318;SDS011;31057;48.498;32.260;2022-09-09T15:45:04;13.80;;;6.55;;
45318;SDS011;31057;48.498;32.260;2022-09-09T15:48:07;11.85;;;6.38;;
45318;SDS011;31057;48.498;32.260;2022-09-09T15:51:09;12.60;;;6.68;;
45318;SDS011;31057;48.498;32.260;2022-09-09T15:54:32;10.20;;;6.27;;
45318;SDS011;31057;48.498;32.260;2022-09-09T15:57:36;8.50;;;6.20;;
45318;SDS011;31057;48.498;32.260;2022-09-09T16:00:38;10.25;;;6.28;;
45318;SDS011;31057;48.498;32.260;2022-09-09T16:03:41;14.07;;;8.47;;
45318;SDS011;31057;48.498;32.260;2022-09-09T16:06:45;18.63;;;9.65;;
45318;SDS011;31057;48.498;32.260;2022-09-09T16:09:47;12.63;;;7.88;;
45318;SDS011;31057;48.498;32.260;2022-09-09T16:12:52;15.07;;;8.88;;
45318;SDS011;31057;48.498;32.260;2022-09-09T16:15:54;14.48;;;9.27;;
45318;SDS011;31057;48.498;32.260;2022-09-09T16:18:57;19.50;;;11.90;;
45318;SDS011;31057;48.498;32.260;2022-09-09T16:22:00;14.07;;;7.70;;
45318;SDS011;31057;48.498;32.260;2022-09-09T16:25:04;14.38;;;9.85;;
45318;SDS011;31057;48.498;32.260;2022-09-09T16:28:07;16.92;;;7.53;;
45318;SDS011;31057;48.498;32.260;2022-09-09T16:31:13;11.68;;;7.25;;
45318;SDS011;31057;48.498;32.260;2022-09-09T16:34:20;14.68;;;8.27;;
45318;SDS011;31057;48.498;32.260;2022-09-09T16:37:22;11.88;;;6.80;;
45318;SDS011;31057;48.498;32.260;2022-09-09T16:40:24;12.40;;;7.90;;
45318;SDS011;31057;48.498;32.260;2022-09-09T16:43:27;12.30;;;7.55;;
45318;SDS011;31057;48.498;32.260;2022-09-09T16:46:30;11.10;;;7.53;;
45318;SDS011;31057;48.498;32.260;2022-09-09T16:49:33;14.15;;;7.25;;
45318;SDS011;31057;48.498;32.260;2022-09-09T16:52:35;10.40;;;7.85;;
45318;SDS011;31057;48.498;32.260;2022-09-09T16:55:38;14.38;;;8.50;;
45318;SDS011;31057;48.498;32.260;2022-09-09T16:58:41;9.70;;;7.10;;
45318;SDS011;31057;48.498;32.260;2022-09-09T17:01:47;11.07;;;6.85;;
45318;SDS011;31057;48.498;32.260;2022-09-09T17:04:50;12.38;;;6.75;;
45318;SDS011;31057;48.498;32.260;2022-09-09T17:07:53;14.85;;;6.97;;
45318;SDS011;31057;48.498;32.260;2022-09-09T17:10:58;13.70;;;6.38;;
45318;SDS011;31057;48.498;32.260;2022-09-09T17:14:00;8.13;;;6.18;;
45318;SDS011;31057;48.498;32.260;2022-09-09T17:17:02;11.82;;;7.03;;
45318;SDS011;31057;48.498;32.260;2022-09-09T17:20:25;14.77;;;6.53;;
45318;SDS011;31057;48.498;32.260;2022-09-09T17:23:27;11.85;;;6.43;;
45318;SDS011;31057;48.498;32.260;2022-09-09T17:26:30;12.02;;;6.93;;
45318;SDS011;31057;48.498;32.260;2022-09-09T17:29:34;10.73;;;6.70;;
45318;SDS011;31057;48.498;32.260;2022-09-09T17:32:37;9.88;;;7.13;;
45318;SDS011;31057;48.498;32.260;2022-09-09T17:35:40;10.40;;;6.97;;
45318;SDS011;31057;48.498;32.260;2022-09-09T17:38:45;9.07;;;6.75;;
45318;SDS011;31057;48.498;32.260;2022-09-09T17:41:48;9.40;;;6.43;;
45318;SDS011;31057;48.498;32.260;2022-09-09T17:44:50;11.48;;;7.22;;
45318;SDS011;31057;48.498;32.260;2022-09-09T17:47:53;12.52;;;6.65;;
45318;SDS011;31057;48.498;32.260;2022-09-09T17:50:59;10.07;;;7.15;;
45318;SDS011;31057;48.498;32.260;2022-09-09T17:54:03;16.35;;;7.93;;
45318;SDS011;31057;48.498;32.260;2022-09-09T17:57:08;13.00;;;8.45;;
45318;SDS011;31057;48.498;32.260;2022-09-09T18:00:10;11.10;;;7.20;;
45318;SDS011;31057;48.498;32.260;2022-09-09T18:03:13;12.77;;;8.00;;
45318;SDS011;31057;48.498;32.260;2022-09-09T18:06:16;16.05;;;9.50;;
45318;SDS011;31057;48.498;32.260;2022-09-09T18:09:22;10.38;;;8.23;;
45318;SDS011;31057;48.498;32.260;2022-09-09T18:12:25;11.82;;;8.13;;
45318;SDS011;31057;48.498;32.260;2022-09-09T18:15:28;11.70;;;9.13;;
45318;SDS011;31057;48.498;32.260;2022-09-09T18:18:49;14.90;;;9.00;;
45318;SDS011;31057;48.498;32.260;2022-09-09T18:25:00;12.00;;;8.85;;
45318;SDS011;31057;48.498;32.260;2022-09-09T18:28:02;13.00;;;8.05;;
45318;SDS011;31057;48.498;32.260;2022-09-09T18:31:05;10.20;;;7.35;;
45318;SDS011;31057;48.498;32.260;2022-09-09T18:34:09;11.50;;;8.20;;
45318;SDS011;31057;48.498;32.260;2022-09-09T18:37:13;9.00;;;7.15;;
45318;SDS011;31057;48.498;32.260;2022-09-09T18:40:15;10.67;;;7.93;;
45318;SDS011;31057;48.498;32.260;2022-09-09T18:43:18;11.55;;;7.32;;
45318;SDS011;31057;48.498;32.260;2022-09-09T18:46:20;14.38;;;7.38;;
45318;SDS011;31057;48.498;32.260;2022-09-09T18:49:23;13.32;;;8.43;;
45318;SDS011;31057;48.498;32.260;2022-09-09T18:52:25;15.18;;;8.50;;
45318;SDS011;31057;48.498;32.260;2022-09-09T18:55:27;11.98;;;8.95;;
45318;SDS011;31057;48.498;32.260;2022-09-09T18:58:29;11.60;;;8.27;;
45318;SDS011;31057;48.498;32.260;2022-09-09T19:01:33;12.07;;;7.30;;
45318;SDS011;31057;48.498;32.260;2022-09-09T19:04:36;10.80;;;6.90;;
45318;SDS011;31057;48.498;32.260;2022-09-09T19:07:38;8.50;;;6.68;;
45318;SDS011;31057;48.498;32.260;2022-09-09T19:10:41;11.73;;;7.15;;
45318;SDS011;31057;48.498;32.260;2022-09-09T19:13:47;9.13;;;6.95;;
45318;SDS011;31057;48.498;32.260;2022-09-09T19:16:54;8.68;;;7.25;;
45318;SDS011;31057;48.498;32.260;2022-09-09T19:19:56;12.87;;;7.80;;
45318;SDS011;31057;48.498;32.260;2022-09-09T19:22:58;12.15;;;7.65;;
45318;SDS011;31057;48.498;32.260;2022-09-09T19:26:01;10.20;;;8.10;;
45318;SDS011;31057;48.498;32.260;2022-09-09T19:32:05;12.55;;;6.60;;
45318;SDS011;31057;48.498;32.260;2022-09-09T19:35:27;10.65;;;6.72;;
45318;SDS011;31057;48.498;32.260;2022-09-09T19:38:30;12.35;;;7.80;;
45318;SDS011;31057;48.498;32.260;2022-09-09T19:41:32;9.97;;;7.20;;
45318;SDS011;31057;48.498;32.260;2022-09-09T19:44:35;14.60;;;7.05;;
45318;SDS011;31057;48.498;32.260;2022-09-09T19:47:37;12.18;;;6.78;;
45318;SDS011;31057;48.498;32.260;2022-09-09T19:50:39;8.60;;;6.65;;
45318;SDS011;31057;48.498;32.260;2022-09-09T19:53:42;13.23;;;7.15;;
45318;SDS011;31057;48.498;32.260;2022-09-09T19:56:46;9.65;;;6.35;;
45318;SDS011;31057;48.498;32.260;2022-09-09T19:59:47;9.95;;;6.90;;
45318;SDS011;31057;48.498;32.260;2022-09-09T20:02:50;10.15;;;6.57;;
45318;SDS011;31057;48.498;32.260;2022-09-09T20:06:12;10.32;;;7.30;;
45318;SDS011;31057;48.498;32.260;2022-09-09T20:09:16;10.15;;;7.20;;
45318;SDS011;31057;48.498;32.260;2022-09-09T20:12:19;11.65;;;7.50;;
45318;SDS011;31057;48.498;32.260;2022-09-09T20:15:21;16.10;;;7.90;;
45318;SDS011;31057;48.498;32.260;2022-09-09T20:18:25;14.68;;;7.95;;
45318;SDS011;31057;48.498;32.260;2022-09-09T20:24:32;13.45;;;6.75;;
45318;SDS011;31057;48.498;32.260;2022-09-09T20:27:34;8.07;;;6.38;;
45318;SDS011;31057;48.498;32.260;2022-09-09T20:30:35;9.85;;;7.25;;
45318;SDS011;31057;48.498;32.260;2022-09-09T20:33:38;10.63;;;6.60;;
45318;SDS011;31057;48.498;32.260;2022-09-09T20:36:41;8.00;;;6.55;;
45318;SDS011;31057;48.498;32.260;2022-09-09T20:39:44;8.60;;;7.07;;
45318;SDS011;31057;48.498;32.260;2022-09-09T20:42:46;8.80;;;6.45;;
45318;SDS011;31057;48.498;32.260;2022-09-09T20:45:48;9.65;;;6.47;;
45318;SDS011;31057;48.498;32.260;2022-09-09T20:48:50;7.20;;;6.05;;
45318;SDS011;31057;48.498;32.260;2022-09-09T20:52:02;7.93;;;6.07;;